createdAt,value
2022-11-28T00:00:42.155Z,935.72
2022-11-28T00:01:43.089Z,935.76
2022-11-28T00:02:43.637Z,935.73
2022-11-28T00:03:44.648Z,935.81
2022-11-28T00:04:45.094Z,935.8
2022-11-28T00:05:47.006Z,935.82
2022-11-28T00:06:46.034Z,935.81
2022-11-28T00:07:46.866Z,935.82
2022-11-28T00:08:47.503Z,935.83
2022-11-28T00:09:48.423Z,935.86
2022-11-28T00:10:49.514Z,935.8
2022-11-28T00:11:49.799Z,935.82
2022-11-28T00:12:49.993Z,935.78
2022-11-28T00:13:50.200Z,935.82
2022-11-28T00:14:51.130Z,935.74
2022-11-28T00:15:51.500Z,935.75
2022-11-28T00:16:51.952Z,935.72
2022-11-28T00:17:52.859Z,935.69
2022-11-28T00:18:53.302Z,935.62
2022-11-28T00:19:54.196Z,935.58
2022-11-28T00:20:54.598Z,935.57
2022-11-28T00:21:55.024Z,935.55
2022-11-28T00:22:55.505Z,935.56
2022-11-28T00:23:56.138Z,935.5
2022-11-28T00:24:56.770Z,935.5
2022-11-28T00:25:56.973Z,935.44
2022-11-28T00:26:57.584Z,935.43
2022-11-28T00:27:58.493Z,935.46
2022-11-28T00:28:59.406Z,935.44
2022-11-28T00:29:59.890Z,935.47
2022-11-28T00:31:00.829Z,935.45
2022-11-28T00:32:00.899Z,935.42
2022-11-28T00:33:01.421Z,935.42
2022-11-28T00:34:01.542Z,935.39
2022-11-28T00:35:01.749Z,935.4
2022-11-28T00:36:02.080Z,935.36
2022-11-28T00:37:02.201Z,935.32
2022-11-28T00:38:02.820Z,935.36
2022-11-28T00:39:03.024Z,935.35
2022-11-28T00:40:03.952Z,935.36
2022-11-28T00:41:04.200Z,935.29
2022-11-28T00:42:04.528Z,935.32
2022-11-28T00:43:05.461Z,935.3
2022-11-28T00:44:06.392Z,935.32
2022-11-28T00:45:07.297Z,935.32
2022-11-28T00:46:08.482Z,935.3
2022-11-28T00:47:09.098Z,935.33
2022-11-28T00:48:09.286Z,935.31
2022-11-28T00:49:09.703Z,935.3
2022-11-28T00:50:10.698Z,935.35
2022-11-28T00:51:10.794Z,935.32
2022-11-28T00:52:10.919Z,935.34
2022-11-28T00:53:11.822Z,935.35
2022-11-28T00:54:12.150Z,935.4
2022-11-28T00:55:13.056Z,935.4
2022-11-28T00:56:13.539Z,935.43
2022-11-28T00:57:13.748Z,935.39
2022-11-28T00:58:13.963Z,935.38
2022-11-28T00:59:14.296Z,935.31
2022-11-28T01:00:14.625Z,935.35
2022-11-28T01:01:15.388Z,935.28
2022-11-28T01:02:15.512Z,935.23
2022-11-28T01:03:15.719Z,935.19
2022-11-28T01:04:16.562Z,935.21
2022-11-28T01:05:17.489Z,935.13
2022-11-28T01:06:17.693Z,935.1
2022-11-28T01:07:18.581Z,935.09
2022-11-28T01:08:18.809Z,935.09
2022-11-28T01:09:19.018Z,935.11
2022-11-28T01:10:19.224Z,935.09
2022-11-28T01:11:19.739Z,935.07
2022-11-28T01:12:20.370Z,935.09
2022-11-28T01:13:20.574Z,935.09
2022-11-28T01:14:21.053Z,935.08
2022-11-28T01:15:21.948Z,935.11
2022-11-28T01:16:23.037Z,935.09
2022-11-28T01:17:23.397Z,935.06
2022-11-28T01:18:24.306Z,935.04
2022-11-28T01:19:25.033Z,935.03
2022-11-28T01:20:25.220Z,935.05
2022-11-28T01:21:26.040Z,935.03
2022-11-28T01:22:26.743Z,935.06
2022-11-28T01:23:27.650Z,935.1
2022-11-28T01:24:28.140Z,935.15
2022-11-28T01:25:28.798Z,935.2
2022-11-28T01:26:29.267Z,935.21
2022-11-28T01:27:29.460Z,935.21
2022-11-28T01:28:30.349Z,935.21
2022-11-28T01:29:30.534Z,935.24
2022-11-28T01:30:31.428Z,935.22
2022-11-28T01:31:32.329Z,935.22
2022-11-28T01:32:32.591Z,935.27
2022-11-28T01:33:33.506Z,935.32
2022-11-28T01:34:33.646Z,935.33
2022-11-28T01:35:34.449Z,935.25
2022-11-28T01:36:35.343Z,935.21
2022-11-28T01:37:35.766Z,935.1
2022-11-28T01:38:36.653Z,935.07
2022-11-28T01:39:37.563Z,935.06
2022-11-28T01:40:38.188Z,935
2022-11-28T01:41:38.999Z,935.02
2022-11-28T01:42:39.614Z,934.96
2022-11-28T01:43:40.522Z,935
2022-11-28T01:44:41.328Z,935.02
2022-11-28T01:45:41.417Z,935.01
2022-11-28T01:46:41.945Z,935.02
2022-11-28T01:47:42.323Z,935.09
2022-11-28T01:48:42.535Z,935.14
2022-11-28T01:49:42.669Z,935.2
2022-11-28T01:50:43.555Z,935.25
2022-11-28T01:51:43.671Z,935.25
2022-11-28T01:52:43.777Z,935.22
2022-11-28T01:53:44.412Z,935.19
2022-11-28T01:54:44.747Z,935.17
2022-11-28T01:55:45.225Z,935.22
2022-11-28T01:56:45.857Z,935.17
2022-11-28T01:57:46.353Z,935.17
2022-11-28T01:58:47.242Z,935.18
2022-11-28T01:59:47.866Z,935.12
2022-11-28T02:00:48.552Z,935.13
2022-11-28T02:01:49.226Z,935.08
2022-11-28T02:02:49.621Z,935.12
2022-11-28T02:03:50.108Z,935.15
2022-11-28T02:04:50.540Z,935.13
2022-11-28T02:05:51.168Z,935.09
2022-11-28T02:06:51.371Z,935.11
2022-11-28T02:07:51.809Z,935.09
2022-11-28T02:08:51.936Z,935.02
2022-11-28T02:09:52.864Z,935.05
2022-11-28T02:10:53.055Z,935.06
2022-11-28T02:11:53.835Z,935.08
2022-11-28T02:12:54.845Z,935.07
2022-11-28T02:13:55.756Z,935.03
2022-11-28T02:14:55.953Z,935.04
2022-11-28T02:15:56.601Z,934.99
2022-11-28T02:16:56.969Z,935
2022-11-28T02:17:57.143Z,935.04
2022-11-28T02:18:57.327Z,935.1
2022-11-28T02:19:57.461Z,935.11
2022-11-28T02:20:57.949Z,935.15
2022-11-28T02:21:59.035Z,935.17
2022-11-28T02:22:59.150Z,935.14
2022-11-28T02:24:00.059Z,935.09
2022-11-28T02:25:00.975Z,935.05
2022-11-28T02:26:01.584Z,935.03
2022-11-28T02:27:02.139Z,934.93
2022-11-28T02:28:02.626Z,934.91
2022-11-28T02:29:03.239Z,934.92
2022-11-28T02:30:04.144Z,934.86
2022-11-28T02:31:04.804Z,934.94
2022-11-28T02:32:05.258Z,934.93
2022-11-28T02:33:06.184Z,934.94
2022-11-28T02:34:06.386Z,934.92
2022-11-28T02:35:06.507Z,934.92
2022-11-28T02:36:06.704Z,934.96
2022-11-28T02:37:07.612Z,934.94
2022-11-28T02:38:08.011Z,934.9
2022-11-28T02:39:08.925Z,934.84
2022-11-28T02:40:09.857Z,934.82
2022-11-28T02:41:10.766Z,934.77
2022-11-28T02:42:10.909Z,934.79
2022-11-28T02:43:11.112Z,934.8
2022-11-28T02:44:11.724Z,934.81
2022-11-28T02:45:12.634Z,934.81
2022-11-28T02:46:13.427Z,934.87
2022-11-28T02:47:14.208Z,934.87
2022-11-28T02:48:14.863Z,934.92
2022-11-28T02:49:15.504Z,934.91
2022-11-28T02:50:16.194Z,934.87
2022-11-28T02:51:16.386Z,934.77
2022-11-28T02:52:17.197Z,934.67
2022-11-28T02:53:17.940Z,934.66
2022-11-28T02:54:18.141Z,934.72
2022-11-28T02:55:18.503Z,934.79
2022-11-28T02:56:19.414Z,934.98
2022-11-28T02:57:20.046Z,934.99
2022-11-28T02:58:20.955Z,934.98
2022-11-28T02:59:21.442Z,934.86
2022-11-28T03:00:21.638Z,934.82
2022-11-28T03:01:21.944Z,934.79
2022-11-28T03:02:22.899Z,934.84
2022-11-28T03:03:23.055Z,934.88
2022-11-28T03:04:23.690Z,934.92
2022-11-28T03:05:23.941Z,934.94
2022-11-28T03:06:24.152Z,934.88
2022-11-28T03:07:24.403Z,934.82
2022-11-28T03:08:24.522Z,934.78
2022-11-28T03:09:24.864Z,934.75
2022-11-28T03:10:25.763Z,934.68
2022-11-28T03:11:25.959Z,934.66
2022-11-28T03:12:26.777Z,934.68
2022-11-28T03:13:27.079Z,934.68
2022-11-28T03:14:27.563Z,934.65
2022-11-28T03:15:28.221Z,934.64
2022-11-28T03:16:28.623Z,934.58
2022-11-28T03:17:29.342Z,934.59
2022-11-28T03:18:30.266Z,934.52
2022-11-28T03:19:30.883Z,934.53
2022-11-28T03:20:31.020Z,934.51
2022-11-28T03:21:31.929Z,934.49
2022-11-28T03:22:32.196Z,934.42
2022-11-28T03:23:32.887Z,934.39
2022-11-28T03:24:33.790Z,934.39
2022-11-28T03:25:33.943Z,934.36
2022-11-28T03:26:34.557Z,934.38
2022-11-28T03:27:35.468Z,934.33
2022-11-28T03:28:39.362Z,934.29
2022-11-28T03:29:35.953Z,934.22
2022-11-28T03:30:36.272Z,934.22
2022-11-28T03:31:36.989Z,934.25
2022-11-28T03:32:37.653Z,934.17
2022-11-28T03:33:38.280Z,934.11
2022-11-28T03:34:38.768Z,934.1
2022-11-28T03:35:39.304Z,934.06
2022-11-28T03:36:39.494Z,933.94
2022-11-28T03:37:39.707Z,933.87
2022-11-28T03:38:40.124Z,933.88
2022-11-28T03:39:40.623Z,933.83
2022-11-28T03:40:40.807Z,933.74
2022-11-28T03:41:41.295Z,933.78
2022-11-28T03:42:42.106Z,933.77
2022-11-28T03:43:42.697Z,933.73
2022-11-28T03:44:43.817Z,933.75
2022-11-28T03:45:43.902Z,933.77
2022-11-28T03:46:44.113Z,933.76
2022-11-28T03:47:45.131Z,933.78
2022-11-28T03:48:45.767Z,933.85
2022-11-28T03:49:46.690Z,933.88
2022-11-28T03:50:47.026Z,934
2022-11-28T03:51:47.512Z,933.94
2022-11-28T03:52:48.347Z,934
2022-11-28T03:53:48.759Z,933.93
2022-11-28T03:54:49.392Z,933.99
2022-11-28T03:55:50.371Z,933.97
2022-11-28T03:56:50.611Z,933.96
2022-11-28T03:57:51.535Z,933.92
2022-11-28T03:58:52.488Z,933.86
2022-11-28T03:59:52.981Z,933.92
2022-11-28T04:00:53.329Z,933.84
2022-11-28T04:01:54.021Z,933.88
2022-11-28T04:02:54.915Z,933.83
2022-11-28T04:03:54.949Z,933.84
2022-11-28T04:04:55.290Z,933.82
2022-11-28T04:05:55.719Z,933.77
2022-11-28T04:06:56.339Z,933.81
2022-11-28T04:07:56.694Z,933.81
2022-11-28T04:08:57.608Z,933.82
2022-11-28T04:09:57.947Z,933.82
2022-11-28T04:10:58.579Z,933.83
2022-11-28T04:11:59.212Z,933.79
2022-11-28T04:13:00.026Z,933.76
2022-11-28T04:14:00.363Z,933.72
2022-11-28T04:15:00.554Z,933.67
2022-11-28T04:16:01.069Z,933.61
2022-11-28T04:17:01.587Z,933.5
2022-11-28T04:18:02.363Z,933.49
2022-11-28T04:19:02.546Z,933.43
2022-11-28T04:20:03.182Z,933.44
2022-11-28T04:21:03.611Z,933.39
2022-11-28T04:22:03.831Z,933.34
2022-11-28T04:23:04.646Z,933.26
2022-11-28T04:24:05.062Z,933.27
2022-11-28T04:25:05.980Z,933.28
2022-11-28T04:26:06.203Z,933.26
2022-11-28T04:27:07.117Z,933.28
2022-11-28T04:28:08.025Z,933.24
2022-11-28T04:29:08.204Z,933.16
2022-11-28T04:30:09.113Z,933.17
2022-11-28T04:31:09.806Z,933.22
2022-11-28T04:32:10.714Z,933.2
2022-11-28T04:33:10.929Z,933.26
2022-11-28T04:34:11.528Z,933.23
2022-11-28T04:35:12.147Z,933.28
2022-11-28T04:36:12.330Z,933.27
2022-11-28T04:37:13.220Z,933.33
2022-11-28T04:38:13.709Z,933.36
2022-11-28T04:39:14.410Z,933.44
2022-11-28T04:40:15.321Z,933.51
2022-11-28T04:41:15.505Z,933.51
2022-11-28T04:42:16.444Z,933.48
2022-11-28T04:43:16.977Z,933.48
2022-11-28T04:44:17.479Z,933.42
2022-11-28T04:45:18.393Z,933.42
2022-11-28T04:46:19.540Z,933.39
2022-11-28T04:47:20.342Z,933.44
2022-11-28T04:48:20.668Z,933.44
2022-11-28T04:49:21.272Z,933.44
2022-11-28T04:50:22.207Z,933.47
2022-11-28T04:51:23.062Z,933.45
2022-11-28T04:52:23.255Z,933.46
2022-11-28T04:53:24.068Z,933.48
2022-11-28T04:54:24.485Z,933.48
2022-11-28T04:55:24.878Z,933.46
2022-11-28T04:56:25.771Z,933.5
2022-11-28T04:57:26.692Z,933.47
2022-11-28T04:58:27.665Z,933.51
2022-11-28T04:59:28.154Z,933.55
2022-11-28T05:00:29.098Z,933.58
2022-11-28T05:01:30.148Z,933.63
2022-11-28T05:02:30.478Z,933.61
2022-11-28T05:03:31.385Z,933.63
2022-11-28T05:04:32.015Z,933.64
2022-11-28T05:05:32.297Z,933.62
2022-11-28T05:06:32.410Z,933.61
2022-11-28T05:07:33.352Z,933.63
2022-11-28T05:08:33.937Z,933.6
2022-11-28T05:09:34.641Z,933.63
2022-11-28T05:10:34.838Z,933.65
2022-11-28T05:11:35.729Z,933.68
2022-11-28T05:12:36.337Z,933.76
2022-11-28T05:13:37.426Z,933.92
2022-11-28T05:14:38.140Z,934.02
2022-11-28T05:15:38.142Z,934.09
2022-11-28T05:16:38.551Z,934.12
2022-11-28T05:17:42.327Z,934.11
2022-11-28T05:18:40.251Z,934.14
2022-11-28T05:19:40.449Z,934.18
2022-11-28T05:20:40.788Z,934.24
2022-11-28T05:21:41.222Z,934.18
2022-11-28T05:22:42.151Z,934.22
2022-11-28T05:23:42.237Z,934.16
2022-11-28T05:24:42.391Z,934.26
2022-11-28T05:25:43.019Z,934.33
2022-11-28T05:26:43.927Z,934.33
2022-11-28T05:27:44.846Z,934.27
2022-11-28T05:28:45.186Z,934.29
2022-11-28T05:29:51.844Z,934.34
2022-11-28T05:30:46.938Z,934.45
2022-11-28T05:31:47.191Z,934.41
2022-11-28T05:32:47.837Z,934.4
2022-11-28T05:33:48.477Z,934.43
2022-11-28T05:34:49.371Z,934.53
2022-11-28T05:35:49.555Z,934.58
2022-11-28T05:36:49.695Z,934.64
2022-11-28T05:37:50.305Z,934.67
2022-11-28T05:38:50.406Z,934.66
2022-11-28T05:39:50.712Z,934.7
2022-11-28T05:40:51.617Z,934.71
2022-11-28T05:41:52.518Z,934.73
2022-11-28T05:42:52.812Z,934.67
2022-11-28T05:43:53.375Z,934.61
2022-11-28T05:44:53.854Z,934.53
2022-11-28T05:45:54.564Z,934.48
2022-11-28T05:46:55.052Z,934.45
2022-11-28T05:47:55.254Z,934.48
2022-11-28T05:48:55.857Z,934.43
2022-11-28T05:49:56.335Z,934.42
2022-11-28T05:50:56.699Z,934.45
2022-11-28T05:51:57.138Z,934.51
2022-11-28T05:52:57.625Z,934.5
2022-11-28T05:53:57.728Z,934.43
2022-11-28T05:54:58.145Z,934.43
2022-11-28T05:55:59.043Z,934.4
2022-11-28T05:56:59.380Z,934.42
2022-11-28T05:58:00.293Z,934.39
2022-11-28T05:59:00.522Z,934.48
2022-11-28T06:00:01.133Z,934.46
2022-11-28T06:01:01.744Z,934.48
2022-11-28T06:02:02.842Z,934.47
2022-11-28T06:03:03.562Z,934.48
2022-11-28T06:04:04.261Z,934.44
2022-11-28T06:05:21.301Z,934.43
2022-11-28T06:06:04.603Z,934.43
2022-11-28T06:07:04.762Z,934.42
2022-11-28T06:08:05.500Z,934.41
2022-11-28T06:09:06.411Z,934.47
2022-11-28T06:10:07.170Z,934.44
2022-11-28T06:11:08.062Z,934.38
2022-11-28T06:12:08.958Z,934.37
2022-11-28T06:13:09.871Z,934.32
2022-11-28T06:14:10.696Z,934.34
2022-11-28T06:15:11.292Z,934.35
2022-11-28T06:16:11.542Z,934.34
2022-11-28T06:17:11.656Z,934.33
2022-11-28T06:18:11.849Z,934.29
2022-11-28T06:19:12.448Z,934.32
2022-11-28T06:20:13.278Z,934.28
2022-11-28T06:21:13.890Z,934.32
2022-11-28T06:22:14.297Z,934.23
2022-11-28T06:23:15.205Z,934.23
2022-11-28T06:24:15.906Z,934.24
2022-11-28T06:25:16.315Z,934.24
2022-11-28T06:26:17.227Z,934.24
2022-11-28T06:27:17.893Z,934.21
2022-11-28T06:28:18.498Z,934.2
2022-11-28T06:29:18.691Z,934.17
2022-11-28T06:30:19.626Z,934.23
2022-11-28T06:31:19.919Z,934.12
2022-11-28T06:32:22.104Z,934.07
2022-11-28T06:33:20.492Z,934.1
2022-11-28T06:34:20.755Z,934.11
2022-11-28T06:35:21.224Z,934.14
2022-11-28T06:36:21.410Z,934.11
2022-11-28T06:37:21.552Z,934.13
2022-11-28T06:38:21.757Z,934.11
2022-11-28T06:39:22.076Z,934.16
2022-11-28T06:40:22.487Z,934.1
2022-11-28T06:41:23.256Z,934.09
2022-11-28T06:42:23.322Z,934.06
2022-11-28T06:43:24.240Z,934.03
2022-11-28T06:44:24.344Z,934.04
2022-11-28T06:45:25.259Z,934.01
2022-11-28T06:46:25.588Z,934.02
2022-11-28T06:47:25.665Z,934
2022-11-28T06:48:26.581Z,933.94
2022-11-28T06:49:27.615Z,933.96
2022-11-28T06:50:28.252Z,933.93
2022-11-28T06:51:29.300Z,933.97
2022-11-28T06:52:30.039Z,933.95
2022-11-28T06:53:31.642Z,933.94
2022-11-28T06:54:31.329Z,933.95
2022-11-28T06:55:32.017Z,933.84
2022-11-28T06:56:33.073Z,933.8
2022-11-28T06:57:33.403Z,933.82
2022-11-28T06:58:33.643Z,933.8
2022-11-28T06:59:34.538Z,933.73
2022-11-28T07:00:35.573Z,933.75
2022-11-28T07:01:35.702Z,933.72
2022-11-28T07:02:35.967Z,933.68
2022-11-28T07:03:36.231Z,933.69
2022-11-28T07:04:36.615Z,933.66
2022-11-28T07:05:37.095Z,933.63
2022-11-28T07:06:37.311Z,933.64
2022-11-28T07:07:50.181Z,933.66
2022-11-28T07:08:38.024Z,933.64
2022-11-28T07:09:38.951Z,933.61
2022-11-28T07:10:39.477Z,933.66
2022-11-28T07:11:40.110Z,933.62
2022-11-28T07:12:41.024Z,933.6
2022-11-28T07:13:41.725Z,933.64
2022-11-28T07:14:41.880Z,933.58
2022-11-28T07:15:42.788Z,933.56
2022-11-28T07:16:43.213Z,933.51
2022-11-28T07:17:43.930Z,933.51
2022-11-28T07:18:44.547Z,933.59
2022-11-28T07:19:47.213Z,933.56
2022-11-28T07:20:45.402Z,933.53
2022-11-28T07:21:46.319Z,933.49
2022-11-28T07:22:47.024Z,933.5
2022-11-28T07:23:47.236Z,933.5
2022-11-28T07:24:47.665Z,933.52
2022-11-28T07:25:48.375Z,933.5
2022-11-28T07:26:48.708Z,933.48
2022-11-28T07:27:48.965Z,933.46
2022-11-28T07:28:49.168Z,933.48
2022-11-28T07:29:50.055Z,933.46
2022-11-28T07:30:50.675Z,933.45
2022-11-28T07:31:51.625Z,933.42
2022-11-28T07:32:52.599Z,933.44
2022-11-28T07:33:53.218Z,933.42
2022-11-28T07:34:53.495Z,933.44
2022-11-28T07:35:54.399Z,933.46
2022-11-28T07:36:54.609Z,933.42
2022-11-28T07:37:55.010Z,933.37
2022-11-28T07:38:55.204Z,933.32
2022-11-28T07:39:55.400Z,933.34
2022-11-28T07:40:56.108Z,933.37
2022-11-28T07:41:56.596Z,933.37
2022-11-28T07:42:57.333Z,933.4
2022-11-28T07:43:57.829Z,933.47
2022-11-28T07:44:58.837Z,933.49
2022-11-28T07:46:01.261Z,933.58
2022-11-28T07:46:59.823Z,933.51
2022-11-28T07:48:00.259Z,933.6
2022-11-28T07:49:00.474Z,933.66
2022-11-28T07:50:00.720Z,933.51
2022-11-28T07:51:01.213Z,933.64
2022-11-28T07:52:01.824Z,933.49
2022-11-28T07:53:06.943Z,933.49
2022-11-28T07:54:02.782Z,933.51
2022-11-28T07:55:03.272Z,933.58
2022-11-28T07:56:03.793Z,933.66
2022-11-28T07:57:12.240Z,933.63
2022-11-28T07:58:04.842Z,933.6
2022-11-28T07:59:05.607Z,933.56
2022-11-28T08:00:05.936Z,933.65
2022-11-28T08:01:06.862Z,933.68
2022-11-28T08:02:07.560Z,933.67
2022-11-28T08:03:07.960Z,933.72
2022-11-28T08:04:08.909Z,933.73
2022-11-28T08:05:09.951Z,933.72
2022-11-28T08:06:10.386Z,933.73
2022-11-28T08:07:11.306Z,933.69
2022-11-28T08:08:11.523Z,933.69
2022-11-28T08:09:12.438Z,933.72
2022-11-28T08:10:12.636Z,933.73
2022-11-28T08:11:13.228Z,933.71
2022-11-28T08:12:14.143Z,933.71
2022-11-28T08:13:14.511Z,933.71
2022-11-28T08:14:14.721Z,933.71
2022-11-28T08:15:15.728Z,933.7
2022-11-28T08:16:16.295Z,933.7
2022-11-28T08:17:17.069Z,933.63
2022-11-28T08:18:17.688Z,933.66
2022-11-28T08:19:20.457Z,933.61
2022-11-28T08:20:19.095Z,933.61
2022-11-28T08:21:19.917Z,933.6
2022-11-28T08:22:20.406Z,933.65
2022-11-28T08:23:20.632Z,933.65
2022-11-28T08:24:21.555Z,933.64
2022-11-28T08:25:22.313Z,933.68
2022-11-28T08:26:27.480Z,933.68
2022-11-28T08:27:23.358Z,933.64
2022-11-28T08:28:24.276Z,933.62
2022-11-28T08:29:25.268Z,933.63
2022-11-28T08:30:26.229Z,933.63
2022-11-28T08:31:26.574Z,933.62
2022-11-28T08:32:27.248Z,933.62
2022-11-28T08:33:28.161Z,933.65
2022-11-28T08:34:28.370Z,933.65
2022-11-28T08:35:29.373Z,933.64
2022-11-28T08:36:29.891Z,933.7
2022-11-28T08:37:30.165Z,933.73
2022-11-28T08:38:30.289Z,933.75
2022-11-28T08:39:30.481Z,933.75
2022-11-28T08:40:30.980Z,933.68
2022-11-28T08:41:31.532Z,933.71
2022-11-28T08:42:32.460Z,933.66
2022-11-28T08:43:33.372Z,933.69
2022-11-28T08:44:33.877Z,933.72
2022-11-28T08:45:34.941Z,933.74
2022-11-28T08:46:35.724Z,933.82
2022-11-28T08:47:35.945Z,933.75
2022-11-28T08:48:36.566Z,933.81
2022-11-28T08:49:37.489Z,933.79
2022-11-28T08:50:38.124Z,933.71
2022-11-28T08:51:38.653Z,933.65
2022-11-28T08:52:39.564Z,933.68
2022-11-28T08:53:40.156Z,933.65
2022-11-28T08:54:40.441Z,933.67
2022-11-28T08:55:41.927Z,933.69
2022-11-28T08:56:41.988Z,933.72
2022-11-28T08:57:42.205Z,933.76
2022-11-28T08:58:42.690Z,933.77
2022-11-28T08:59:43.506Z,933.8
2022-11-28T09:00:43.528Z,933.86
2022-11-28T09:01:44.676Z,933.84
2022-11-28T09:02:45.117Z,933.86
2022-11-28T09:03:46.082Z,933.9
2022-11-28T09:04:46.438Z,933.91
2022-11-28T09:05:47.177Z,933.9
2022-11-28T09:06:47.663Z,933.91
2022-11-28T09:07:48.047Z,933.94
2022-11-28T09:08:48.719Z,933.94
2022-11-28T09:09:49.349Z,933.96
2022-11-28T09:10:49.776Z,933.95
2022-11-28T09:11:50.005Z,933.98
2022-11-28T09:12:50.492Z,934.01
2022-11-28T09:13:50.993Z,934.05
2022-11-28T09:14:51.378Z,934.05
2022-11-28T09:15:53.696Z,934.11
2022-11-28T09:16:52.925Z,934.14
2022-11-28T09:17:52.867Z,934.18
2022-11-28T09:18:53.061Z,934.2
2022-11-28T09:19:54.179Z,934.27
2022-11-28T09:20:54.404Z,934.26
2022-11-28T09:21:57.796Z,934.3
2022-11-28T09:22:55.826Z,934.32
2022-11-28T09:23:56.094Z,934.35
2022-11-28T09:24:57.008Z,934.34
2022-11-28T09:25:57.379Z,934.32
2022-11-28T09:26:57.624Z,934.35
2022-11-28T09:27:57.821Z,934.33
2022-11-28T09:28:58.071Z,934.37
2022-11-28T09:29:58.337Z,934.39
2022-11-28T09:30:58.974Z,934.4
2022-11-28T09:31:59.827Z,934.4
2022-11-28T09:33:00.841Z,934.43
2022-11-28T09:34:01.076Z,934.4
2022-11-28T09:35:01.378Z,934.44
2022-11-28T09:36:02.458Z,934.4
2022-11-28T09:37:04.952Z,934.41
2022-11-28T09:38:03.622Z,934.41
2022-11-28T09:39:03.895Z,934.38
2022-11-28T09:40:13.432Z,934.34
2022-11-28T09:41:04.611Z,934.36
2022-11-28T09:42:04.847Z,934.43
2022-11-28T09:43:05.050Z,934.35
2022-11-28T09:44:05.698Z,934.41
2022-11-28T09:45:06.625Z,934.3
2022-11-28T09:46:06.845Z,934.38
2022-11-28T09:47:07.859Z,934.32
2022-11-28T09:48:08.475Z,934.3
2022-11-28T09:49:08.666Z,934.34
2022-11-28T09:50:08.864Z,934.29
2022-11-28T09:51:09.393Z,934.24
2022-11-28T09:52:09.946Z,934.33
2022-11-28T09:53:10.936Z,934.3
2022-11-28T09:54:11.211Z,934.32
2022-11-28T09:55:11.433Z,934.27
2022-11-28T09:56:11.758Z,934.32
2022-11-28T09:57:12.003Z,934.34
2022-11-28T09:58:12.214Z,934.33
2022-11-28T09:59:12.813Z,934.31
2022-11-28T10:00:13.027Z,934.29
2022-11-28T10:01:13.901Z,934.29
2022-11-28T10:02:14.817Z,934.31
2022-11-28T10:03:15.217Z,934.32
2022-11-28T10:04:16.024Z,934.29
2022-11-28T10:05:16.260Z,934.3
2022-11-28T10:06:16.589Z,934.29
2022-11-28T10:07:17.369Z,934.33
2022-11-28T10:08:17.652Z,934.33
2022-11-28T10:09:18.192Z,934.33
2022-11-28T10:10:19.119Z,934.29
2022-11-28T10:11:20.164Z,934.28
2022-11-28T10:12:21.087Z,934.3
2022-11-28T10:13:21.298Z,934.26
2022-11-28T10:14:22.026Z,934.27
2022-11-28T10:15:22.962Z,934.27
2022-11-28T10:16:24.022Z,934.23
2022-11-28T10:17:24.471Z,934.26
2022-11-28T10:18:24.957Z,934.25
2022-11-28T10:19:52.621Z,934.29
2022-11-28T10:20:26.395Z,934.26
2022-11-28T10:21:26.791Z,934.23
2022-11-28T10:22:27.743Z,934.26
2022-11-28T10:23:28.648Z,934.31
2022-11-28T10:24:29.172Z,934.28
2022-11-28T10:25:30.166Z,934.29
2022-11-28T10:26:30.611Z,934.27
2022-11-28T10:27:31.595Z,934.28
2022-11-28T10:28:32.518Z,934.28
2022-11-28T10:29:32.737Z,934.3
2022-11-28T10:30:33.070Z,934.27
2022-11-28T10:31:33.203Z,934.27
2022-11-28T10:32:33.819Z,934.29
2022-11-28T10:33:34.011Z,934.32
2022-11-28T10:34:34.943Z,934.22
2022-11-28T10:35:35.859Z,934.21
2022-11-28T10:36:36.929Z,934.19
2022-11-28T10:37:37.115Z,934.21
2022-11-28T10:38:38.041Z,934.2
2022-11-28T10:39:38.299Z,934.22
2022-11-28T10:40:39.392Z,934.22
2022-11-28T10:41:39.581Z,934.2
2022-11-28T10:42:40.549Z,934.19
2022-11-28T10:43:41.443Z,934.2
2022-11-28T10:44:41.646Z,934.17
2022-11-28T10:45:42.011Z,934.2
2022-11-28T10:46:42.478Z,934.17
2022-11-28T10:47:42.740Z,934.17
2022-11-28T10:48:43.115Z,934.15
2022-11-28T10:49:43.590Z,934.12
2022-11-28T10:50:43.892Z,934.11
2022-11-28T10:51:44.550Z,934.15
2022-11-28T10:52:45.193Z,934.14
2022-11-28T10:53:45.674Z,934.13
2022-11-28T10:54:46.625Z,934.17
2022-11-28T10:55:46.813Z,934.12
2022-11-28T10:56:47.855Z,934.14
2022-11-28T10:57:48.567Z,934.12
2022-11-28T10:58:49.462Z,934.08
2022-11-28T10:59:49.680Z,934.09
2022-11-28T11:00:50.596Z,934.07
2022-11-28T11:01:50.892Z,934.08
2022-11-28T11:02:51.756Z,934.05
2022-11-28T11:03:52.111Z,934.02
2022-11-28T11:04:52.365Z,934.05
2022-11-28T11:05:53.224Z,934.05
2022-11-28T11:07:13.783Z,934.04
2022-11-28T11:08:10.328Z,934.09
2022-11-28T11:09:10.786Z,934.09
2022-11-28T11:10:11.840Z,934.09
2022-11-28T11:11:12.469Z,934.09
2022-11-28T11:12:13.431Z,934.1
2022-11-28T11:13:13.650Z,934.1
2022-11-28T11:14:13.848Z,934.1
2022-11-28T11:15:14.065Z,934.1
2022-11-28T11:16:14.783Z,934.1
2022-11-28T11:17:15.721Z,934.1
2022-11-28T11:18:16.693Z,934.1
2022-11-28T11:19:16.897Z,934.04
2022-11-28T11:20:17.545Z,934.08
2022-11-28T11:21:17.735Z,934.03
2022-11-28T11:22:18.098Z,934.01
2022-11-28T11:23:18.303Z,934.01
2022-11-28T11:24:19.266Z,934.03
2022-11-28T11:25:19.591Z,934.05
2022-11-28T11:26:19.807Z,934
2022-11-28T11:27:20.448Z,933.97
2022-11-28T11:28:21.388Z,933.99
2022-11-28T11:29:21.588Z,934.02
2022-11-28T11:30:22.516Z,934.05
2022-11-28T11:31:23.439Z,934.02
2022-11-28T11:32:23.651Z,934.01
2022-11-28T11:33:23.866Z,933.98
2022-11-28T11:34:24.189Z,934.02
2022-11-28T11:35:24.386Z,933.99
2022-11-28T11:36:24.592Z,933.98
2022-11-28T11:37:24.876Z,934.03
2022-11-28T11:38:25.796Z,934
2022-11-28T11:39:25.913Z,934.01
2022-11-28T11:40:26.468Z,934.02
2022-11-28T11:41:26.826Z,934.04
2022-11-28T11:42:27.745Z,934.02
2022-11-28T11:43:28.742Z,934.04
2022-11-28T11:44:28.942Z,933.95
2022-11-28T11:45:29.623Z,933.94
2022-11-28T11:46:29.775Z,933.97
2022-11-28T11:47:30.280Z,933.97
2022-11-28T11:48:31.200Z,933.94
2022-11-28T11:49:32.119Z,933.93
2022-11-28T11:50:32.343Z,933.92
2022-11-28T11:51:36.577Z,933.91
2022-11-28T11:52:33.654Z,933.93
2022-11-28T11:53:33.876Z,933.93
2022-11-28T11:54:34.796Z,933.89
2022-11-28T11:55:35.417Z,933.88
2022-11-28T11:56:36.339Z,933.83
2022-11-28T11:57:42.954Z,933.85
2022-11-28T11:58:44.030Z,933.81
2022-11-28T11:59:45.159Z,933.85
2022-11-28T12:00:45.728Z,933.85
2022-11-28T12:01:45.937Z,933.82
2022-11-28T12:02:46.990Z,933.82
2022-11-28T12:03:47.331Z,933.9
2022-11-28T12:04:51.212Z,933.89
2022-11-28T12:06:12.505Z,933.89
2022-11-28T12:06:49.342Z,933.86
2022-11-28T12:07:50.337Z,933.88
2022-11-28T12:08:50.605Z,933.86
2022-11-28T12:09:53.522Z,933.86
2022-11-28T12:10:51.773Z,933.87
2022-11-28T12:11:52.694Z,933.83
2022-11-28T12:12:53.622Z,933.86
2022-11-28T12:13:54.508Z,933.86
2022-11-28T12:14:54.708Z,933.87
2022-11-28T12:15:55.256Z,933.8
2022-11-28T12:16:55.855Z,933.82
2022-11-28T12:18:35.209Z,933.81
2022-11-28T12:19:35.949Z,933.82
2022-11-28T12:20:36.402Z,933.8
2022-11-28T12:21:36.909Z,933.82
2022-11-28T12:22:37.107Z,933.81
2022-11-28T12:23:37.614Z,933.83
2022-11-28T12:24:38.178Z,933.85
2022-11-28T12:25:39.263Z,933.85
2022-11-28T12:26:39.564Z,933.82
2022-11-28T12:27:39.821Z,933.79
2022-11-28T12:28:40.238Z,933.84
2022-11-28T12:29:40.563Z,933.8
2022-11-28T12:30:43.346Z,933.81
2022-11-28T12:31:42.057Z,933.81
2022-11-28T12:32:42.283Z,933.82
2022-11-28T12:33:42.799Z,933.83
2022-11-28T12:34:43.017Z,933.79
2022-11-28T12:35:43.979Z,933.81
2022-11-28T12:36:44.102Z,933.79
2022-11-28T12:38:09.660Z,933.77
2022-11-28T12:38:58.447Z,933.78
2022-11-28T12:39:58.588Z,933.77